Time;durP1;ratioP1;P1;durP2;ratioP2;P2;SDS_P1;SDS_P2;PMS_P1;PMS_P2;Temp;Humidity;BMP_temperature;BMP_pressure;BME280_temperature;BME280_humidity;BME280_pressure;Samples;Min_cycle;Max_cycle;Signal;HPM_P1;HPM_P2
2023/03/27 00:00:43;;;;;;;4.20;3.90;;;;;;;;;;6227854;28;20282;-60
2023/03/27 00:03:48;;;;;;;4.20;3.80;;;;;;;;;;6243540;28;20189;-59
2023/03/27 00:06:49;;;;;;;3.77;3.43;;;;;;;;;;6227740;28;20191;-59
2023/03/27 00:09:50;;;;;;;5.50;3.93;;;;;;;;;;6243223;28;20222;-59
2023/03/27 00:12:51;;;;;;;5.53;4.37;;;;;;;;;;6235298;28;20193;-60
2023/03/27 00:15:53;;;;;;;4.93;3.83;;;;;;;;;;6227533;28;20191;-60
2023/03/27 00:18:55;;;;;;;3.77;3.37;;;;;;;;;;6249156;28;20191;-60
2023/03/27 00:21:56;;;;;;;4.07;3.67;;;;;;;;;;6249517;28;20301;-59
2023/03/27 00:24:57;;;;;;;4.13;3.50;;;;;;;;;;6257703;28;20242;-59
2023/03/27 00:27:58;;;;;;;3.27;3.00;;;;;;;;;;6227771;28;20192;-60
2023/03/27 00:30:59;;;;;;;4.00;3.20;;;;;;;;;;6221595;28;20300;-60
2023/03/27 00:34:01;;;;;;;3.70;3.40;;;;;;;;;;6229473;28;20285;-59
2023/03/27 00:37:04;;;;;;;3.53;2.90;;;;;;;;;;6231904;28;20197;-59
2023/03/27 00:40:16;;;;;;;3.60;3.30;;;;;;;;;;6231770;28;20199;-60
2023/03/27 00:43:19;;;;;;;4.70;4.20;;;;;;;;;;6262092;28;20214;-60
2023/03/27 00:46:23;;;;;;;4.20;3.80;;;;;;;;;;6251138;28;20201;-60
2023/03/27 00:49:27;;;;;;;4.07;3.77;;;;;;;;;;6247106;28;20225;-60
2023/03/27 00:52:30;;;;;;;4.07;3.37;;;;;;;;;;6250662;28;20191;-60
2023/03/27 00:55:33;;;;;;;4.57;3.37;;;;;;;;;;6229035;28;20183;-60
2023/03/27 00:58:40;;;;;;;4.10;3.70;;;;;;;;;;6258011;28;20267;-60
2023/03/27 01:01:42;;;;;;;2.90;2.70;;;;;;;;;;6250730;28;20202;-59
2023/03/27 01:04:44;;;;;;;3.13;2.43;;;7.20;97.70;;;;;;6249192;28;20191;-59
2023/03/27 01:07:47;;;;;;;2.93;2.63;;;6.40;96.30;;;;;;6267111;28;20285;-59
2023/03/27 01:11:14;;;;;;;2.70;2.50;;;6.40;96.50;;;;;;6233690;28;20233;-59
2023/03/27 01:14:37;;;;;;;2.50;2.30;;;6.40;96.20;;;;;;6250203;28;20207;-59
2023/03/27 01:17:38;;;;;;;3.63;2.80;;;6.40;95.90;;;;;;6250196;28;20195;-59
2023/03/27 01:21:21;;;;;;;3.43;3.13;;;6.30;95.40;;;;;;6250288;28;20189;-59
2023/03/27 01:24:41;;;;;;;3.03;2.50;;;6.30;96.10;;;;;;6241662;28;20194;-59
2023/03/27 01:28:20;;;;;;;5.10;2.90;;;6.30;96.10;;;;;;6247983;28;20209;-60
2023/03/27 01:32:09;;;;;;;3.53;3.23;;;6.30;96.00;;;;;;6255010;28;20235;-60
2023/03/27 01:35:19;;;;;;;3.40;3.10;;;6.20;96.30;;;;;;6226536;28;20194;-60
2023/03/27 01:39:04;;;;;;;4.73;4.33;;;6.20;95.70;;;;;;6239297;28;20175;-60
2023/03/27 01:42:15;;;;;;;6.83;6.13;;;6.20;96.30;;;;;;6252044;28;20198;-59
2023/03/27 01:45:46;;;;;;;6.90;6.30;;;6.20;96.50;;;;;;6243033;28;20276;-59
2023/03/27 01:48:50;;;;;;;8.10;7.30;;;6.20;95.70;;;;;;6235340;28;20191;-59
2023/03/27 01:52:02;;;;;;;8.30;7.60;;;6.20;95.90;;;;;;6249223;28;20202;-59
2023/03/27 01:55:08;;;;;;;7.87;7.17;;;6.20;95.50;;;;;;6239450;28;20188;-60
2023/03/27 01:58:18;;;;;;;7.43;6.53;;;6.20;96.00;;;;;;6247204;28;20270;-60
2023/03/27 02:01:33;;;;;;;6.23;5.57;;;6.10;95.90;;;;;;6248232;28;20183;-59
2023/03/27 02:04:49;;;;;;;6.63;6.03;;;6.10;95.50;;;;;;6244163;28;20187;-59
2023/03/27 02:07:55;;;;;;;6.03;5.43;;;6.10;95.50;;;;;;6242495;28;20250;-60
2023/03/27 02:10:57;;;;;;;5.27;4.63;;;6.10;94.90;;;;;;6247713;28;20214;-60
2023/03/27 02:14:22;;;;;;;4.60;4.20;;;6.10;95.50;;;;;;6249260;28;20187;-60
2023/03/27 02:17:27;;;;;;;4.70;3.90;;;6.00;94.00;;;;;;6236870;28;20186;-60
2023/03/27 02:20:28;;;;;;;3.73;3.43;;;6.00;93.50;;;;;;6266146;28;20191;-59
2023/03/27 02:23:29;;;;;;;3.80;3.40;;;6.00;94.10;;;;;;6227604;28;20199;-60
2023/03/27 02:26:31;;;;;;;3.90;3.10;;;6.00;94.90;;;;;;6225605;28;20224;-60
2023/03/27 02:29:38;;;;;;;2.70;2.50;;;6.00;95.00;;;;;;6236952;28;20209;-59
2023/03/27 02:33:02;;;;;;;1.90;1.80;;;6.00;94.70;;;;;;6253454;28;20227;-60
2023/03/27 02:36:22;;;;;;;1.70;1.60;;;6.00;92.50;;;;;;6226456;28;20213;-59
2023/03/27 02:39:32;;;;;;;1.23;1.00;;;6.00;93.70;;;;;;6246899;28;20191;-59
2023/03/27 02:42:59;;;;;;;0.90;0.90;;;6.00;92.90;;;;;;6248137;28;20187;-59
2023/03/27 02:46:14;;;;;;;0.70;0.70;;;6.00;93.40;;;;;;6247477;28;20254;-60
2023/03/27 02:49:39;;;;;;;0.70;0.70;;;5.90;92.50;;;;;;6242725;28;20210;-60
2023/03/27 02:52:50;;;;;;;0.60;0.60;;;5.90;91.50;;;;;;6240360;28;20191;-59
2023/03/27 02:55:57;;;;;;;0.63;0.63;;;5.90;88.90;;;;;;6240722;28;20194;-59
2023/03/27 02:59:21;;;;;;;0.67;0.53;;;5.90;89.40;;;;;;6237933;28;20192;-59
2023/03/27 03:02:28;;;;;;;0.40;0.40;;;5.90;91.30;;;;;;6233627;28;20191;-60
2023/03/27 03:05:29;;;;;;;0.40;0.40;;;5.90;86.80;;;;;;6245843;28;20274;-60
2023/03/27 03:08:30;;;;;;;0.73;0.60;;;5.90;88.30;;;;;;6246089;28;20186;-60
2023/03/27 03:11:34;;;;;;;1.07;0.53;;;5.90;88.70;;;;;;6222892;28;20221;-59
2023/03/27 03:14:37;;;;;;;0.40;0.40;;;;;;;;;;6245887;28;20189;-60
2023/03/27 03:17:38;;;;;;;0.40;0.40;;;;;;;;;;6248736;28;20202;-60
2023/03/27 03:20:40;;;;;;;0.30;0.30;;;;;;;;;;6229263;28;20247;-60
2023/03/27 03:23:41;;;;;;;0.40;0.40;;;;;;;;;;6254738;28;20202;-60
2023/03/27 03:26:43;;;;;;;0.23;0.23;;;;;;;;;;6221498;28;20198;-58
2023/03/27 03:29:45;;;;;;;0.20;0.20;;;;;;;;;;6255321;28;20211;-59
2023/03/27 03:32:46;;;;;;;0.23;0.23;;;;;;;;;;6223959;28;20239;-59
2023/03/27 03:35:48;;;;;;;0.57;0.30;;;;;;;;;;6255831;28;20190;-60
2023/03/27 03:38:49;;;;;;;0.30;0.30;;;;;;;;;;6242551;28;20218;-59
2023/03/27 03:41:50;;;;;;;1.50;0.40;;;;;;;;;;6263692;28;20201;-60
2023/03/27 03:44:51;;;;;;;0.30;0.30;;;;;;;;;;6262882;28;20205;-59
2023/03/27 03:47:52;;;;;;;0.40;0.40;;;;;;;;;;6231370;28;20217;-59
2023/03/27 03:50:53;;;;;;;0.20;0.20;;;;;;;;;;6259566;28;20214;-60
2023/03/27 03:53:54;;;;;;;0.23;0.23;;;;;;;;;;6243606;28;20197;-60
2023/03/27 03:56:55;;;;;;;0.83;0.30;;;;;;;;;;6246697;28;20194;-60
2023/03/27 03:59:57;;;;;;;0.43;0.43;;;;;;;;;;6249359;28;20269;-59
2023/03/27 04:02:58;;;;;;;0.20;0.20;;;;;;;;;;6246793;28;20193;-60
2023/03/27 04:06:06;;;;;;;0.50;0.50;;;;;;;;;;6256684;28;20226;-59
2023/03/27 04:09:07;;;;;;;0.50;0.50;;;;;;;;;;6228642;28;20199;-60
2023/03/27 04:12:08;;;;;;;0.47;0.47;;;;;;;;;;6257627;28;20208;-60
2023/03/27 04:15:10;;;;;;;0.90;0.90;;;;;;;;;;6227326;28;20201;-59
2023/03/27 04:18:13;;;;;;;1.00;1.00;;;;;;;;;;6256378;28;20182;-59
2023/03/27 04:21:14;;;;;;;0.50;0.50;;;;;;;;;;6230028;28;20199;-59
2023/03/27 04:24:17;;;;;;;0.33;0.33;;;;;;;;;;6228982;28;20194;-59
2023/03/27 04:27:18;;;;;;;0.53;0.53;;;;;;;;;;6227423;28;20203;-57
2023/03/27 04:30:23;;;;;;;0.50;0.47;;;;;;;;;;6228016;28;20218;-57
2023/03/27 04:33:24;;;;;;;0.70;0.50;;;;;;;;;;6241940;28;20191;-58
2023/03/27 04:36:26;;;;;;;1.03;0.60;;;;;;;;;;6225821;28;20262;-58
2023/03/27 04:39:27;;;;;;;0.40;0.40;;;;;;;;;;6231985;28;20281;-58
2023/03/27 04:42:28;;;;;;;0.60;0.50;;;;;;;;;;6264343;28;20198;-57
2023/03/27 04:45:31;;;;;;;2.37;0.50;;;;;;;;;;6251437;28;20187;-57
2023/03/27 04:48:32;;;;;;;0.77;0.50;;;;;;;;;;6224271;28;20225;-57
2023/03/27 04:51:33;;;;;;;0.40;0.40;;;;;;;;;;6262940;28;20260;-57
2023/03/27 04:54:34;;;;;;;1.33;0.50;;;;;;;;;;6227422;28;20195;-58
2023/03/27 04:57:36;;;;;;;0.40;0.40;;;;;;;;;;6235833;28;20202;-57
2023/03/27 05:00:37;;;;;;;0.50;0.50;;;;;;;;;;6242447;28;20199;-57
2023/03/27 05:03:39;;;;;;;0.80;0.50;;;;;;;;;;6246110;28;20194;-57
2023/03/27 05:06:40;;;;;;;0.40;0.40;;;;;;;;;;6265177;28;20201;-58
2023/03/27 05:09:41;;;;;;;0.60;0.40;;;;;;;;;;6229613;28;20250;-57
2023/03/27 05:12:46;;;;;;;0.60;0.60;;;;;;;;;;6233069;28;20285;-57
2023/03/27 05:15:47;;;;;;;0.50;0.50;;;;;;;;;;6250838;28;20203;-57
2023/03/27 05:18:48;;;;;;;1.50;0.63;;;;;;;;;;6267398;28;20261;-57
2023/03/27 05:21:49;;;;;;;0.50;0.50;;;;;;;;;;6265410;28;20197;-57
2023/03/27 05:24:50;;;;;;;0.70;0.57;;;;;;;;;;6235192;28;20199;-57
2023/03/27 05:27:52;;;;;;;0.83;0.60;;;;;;;;;;6254652;28;20206;-57
2023/03/27 05:30:53;;;;;;;1.27;0.70;;;;;;;;;;6219397;28;20241;-57
2023/03/27 05:33:54;;;;;;;0.70;0.70;;;;;;;;;;6226979;28;20205;-57
2023/03/27 05:36:56;;;;;;;1.07;0.80;;;;;;;;;;6251042;28;20269;-57
2023/03/27 05:39:58;;;;;;;0.60;0.53;;;;;;;;;;6230136;28;20195;-57
2023/03/27 05:42:59;;;;;;;0.50;0.50;;;;;;;;;;6264254;28;20190;-57
2023/03/27 05:46:00;;;;;;;0.50;0.50;;;;;;;;;;6229228;28;20194;-58
2023/03/27 05:49:01;;;;;;;0.50;0.50;;;;;;;;;;6253982;28;20202;-57
2023/03/27 05:52:02;;;;;;;0.50;0.50;;;;;;;;;;6213152;28;20202;-57
2023/03/27 05:55:05;;;;;;;0.90;0.90;;;;;;;;;;6218225;28;20284;-57
2023/03/27 05:58:08;;;;;;;1.30;1.20;;;;;;;;;;6239181;28;20195;-57
2023/03/27 06:01:10;;;;;;;1.27;1.17;;;;;;;;;;6229165;28;20190;-57
2023/03/27 06:04:11;;;;;;;2.43;1.17;;;;;;;;;;6260723;28;20195;-57
2023/03/27 06:07:13;;;;;;;1.50;1.30;;;;;;;;;;6255523;28;20213;-58
2023/03/27 06:10:19;;;;;;;1.30;1.20;;;;;;;;;;6228422;28;20219;-57
2023/03/27 06:13:20;;;;;;;1.37;1.27;;;;;;;;;;6231334;28;20200;-58
2023/03/27 06:16:21;;;;;;;1.30;1.10;;;;;;;;;;6224605;28;20191;-57
2023/03/27 06:19:23;;;;;;;1.20;1.10;;;;;;;;;;6239810;28;20187;-57
2023/03/27 06:22:24;;;;;;;2.30;1.50;;;;;;;;;;6239657;28;20213;-58
2023/03/27 06:25:26;;;;;;;2.57;1.57;;;;;;;;;;6273590;28;20195;-57
2023/03/27 06:28:27;;;;;;;1.67;1.43;;;;;;;;;;6234098;28;20197;-58
2023/03/27 06:31:28;;;;;;;3.10;1.90;;;;;;;;;;6260874;28;20230;-58
2023/03/27 06:34:29;;;;;;;2.60;1.77;;;;;;;;;;6225417;28;20198;-58
2023/03/27 06:37:35;;;;;;;3.60;1.83;;;;;;;;;;6255559;28;20191;-57
2023/03/27 06:40:37;;;;;;;1.70;1.50;;;;;;;;;;6259865;28;20183;-58
2023/03/27 06:43:38;;;;;;;2.17;1.70;;;;;;;;;;6274320;28;20298;-57
2023/03/27 06:46:39;;;;;;;2.67;1.70;;;;;;;;;;6225082;28;20291;-57
2023/03/27 06:49:40;;;;;;;4.33;2.40;;;;;;;;;;6228766;28;20248;-58
2023/03/27 06:52:41;;;;;;;3.07;2.07;;;;;;;;;;6251121;28;20243;-57
2023/03/27 06:55:43;;;;;;;3.13;2.00;;;;;;;;;;6241736;28;20206;-57
2023/03/27 06:58:44;;;;;;;2.00;1.80;;;;;;;;;;6228705;28;20194;-57
2023/03/27 07:01:46;;;;;;;3.00;2.07;;;;;;;;;;6229075;28;20196;-57
2023/03/27 07:04:47;;;;;;;3.63;2.23;;;;;;;;;;6228527;28;20190;-57
2023/03/27 07:07:48;;;;;;;3.87;2.30;;;;;;;;;;6259693;28;20282;-57
2023/03/27 07:10:49;;;;;;;2.97;2.10;;;;;;;;;;6253179;28;20222;-58
2023/03/27 07:13:50;;;;;;;3.57;2.17;;;;;;;;;;6241700;28;20182;-56
2023/03/27 07:16:51;;;;;;;3.20;2.00;;;;;;;;;;6236434;28;20191;-57
2023/03/27 07:19:52;;;;;;;3.47;2.00;;;;;;;;;;6226242;28;20198;-58
2023/03/27 07:22:55;;;;;;;4.30;1.97;;;;;;;;;;6227202;28;20288;-58
2023/03/27 07:25:57;;;;;;;6.17;2.30;;;;;;;;;;6222681;28;20197;-57
2023/03/27 07:28:59;;;;;;;2.47;1.83;;;;;;;;;;6241755;28;20195;-57
2023/03/27 07:32:01;;;;;;;2.57;1.60;;;;;;;;;;6238994;28;20230;-57
2023/03/27 07:35:04;;;;;;;1.93;1.63;;;;;;;;;;6226171;28;20245;-59
2023/03/27 07:38:05;;;;;;;4.57;2.13;;;;;;;;;;6257507;28;20217;-56
2023/03/27 07:41:06;;;;;;;1.50;1.40;;;;;;;;;;6227270;28;20217;-58
2023/03/27 07:44:07;;;;;;;2.83;2.10;;;;;;;;;;6224420;28;20280;-58
2023/03/27 07:47:08;;;;;;;3.60;1.77;;;;;;;;;;6222239;28;20226;-57
2023/03/27 07:50:10;;;;;;;2.83;1.60;;;;;;;;;;6232668;28;20217;-59
2023/03/27 07:53:11;;;;;;;3.33;2.00;;;;;;;;;;6248054;28;20190;-57
2023/03/27 07:56:13;;;;;;;3.47;1.90;;;;;;;;;;6232687;28;20213;-58
2023/03/27 07:59:19;;;;;;;4.07;1.73;;;;;;;;;;6226044;28;20195;-58
2023/03/27 08:02:20;;;;;;;2.57;2.00;;;;;;;;;;6249172;28;20270;-58
2023/03/27 08:05:21;;;;;;;3.43;1.37;;;;;;;;;;6262158;28;20194;-58
2023/03/27 08:08:23;;;;;;;2.10;1.67;;;;;;;;;;6263897;28;20204;-58
2023/03/27 08:11:24;;;;;;;1.97;1.70;;;;;;;;;;6228459;28;20222;-57
2023/03/27 08:14:25;;;;;;;1.97;1.27;;;;;;;;;;6231876;28;20282;-58
2023/03/27 08:17:26;;;;;;;1.80;1.70;;;;;;;;;;6224861;28;20198;-58
2023/03/27 08:20:29;;;;;;;3.07;1.70;;;;;;;;;;6246279;28;20195;-58
2023/03/27 08:23:31;;;;;;;3.20;1.60;;;;;;;;;;6226946;28;20194;-58
2023/03/27 08:26:32;;;;;;;3.10;1.03;;;;;;;;;;6230231;28;20190;-58
2023/03/27 08:29:33;;;;;;;2.03;1.20;;;;;;;;;;6249089;28;20210;-57
2023/03/27 08:32:35;;;;;;;1.47;1.37;;;;;;;;;;6224802;28;20234;-58
2023/03/27 08:35:36;;;;;;;3.90;1.70;;;;;;;;;;6220726;28;20195;-57
2023/03/27 08:38:38;;;;;;;3.60;1.70;;;;;;;;;;6262869;28;20289;-57
2023/03/27 08:41:48;;;;;;;4.10;1.40;;;;;;;;;;6248068;28;20517;-57
2023/03/27 08:44:53;;;;;;;2.93;1.00;;;;;;;;;;6257080;28;20197;-58
2023/03/27 08:47:57;;;;;;;2.07;1.23;;;;;;;;;;6256688;28;20187;-58
2023/03/27 08:51:02;;;;;;;1.57;1.27;;;;;;;;;;6234238;28;20211;-58
2023/03/27 08:54:27;;;;;;;1.97;1.23;;;;;;;;;;6241692;28;20266;-58
2023/03/27 08:57:30;;;;;;;1.10;1.00;;;;;;;;;;6237129;28;20218;-58
2023/03/27 09:00:35;;;;;;;0.57;0.53;;;;;;;;;;6244779;28;20199;-58
2023/03/27 09:03:40;;;;;;;0.30;0.23;;;;;;;;;;6257095;28;20427;-58
2023/03/27 09:06:49;;;;;;;0.63;0.20;;;;;;;;;;6247228;28;20250;-58
2023/03/27 09:10:04;;;;;;;0.13;0.13;;;;;;;;;;6268656;28;20215;-57
2023/03/27 09:13:11;;;;;;;0.27;0.27;;;;;;;;;;6241395;28;20188;-57
2023/03/27 09:16:12;;;;;;;0.53;0.20;;;;;;;;;;6246997;28;20198;-56
2023/03/27 09:19:30;;;;;;;1.17;0.37;;;;;;;;;;6239918;28;20186;-60
2023/03/27 09:22:39;;;;;;;0.20;0.20;;;;;;;;;;6243442;28;20271;-56
2023/03/27 09:25:49;;;;;;;0.43;0.30;;;;;;;;;;6247399;28;20274;-57
2023/03/27 09:28:54;;;;;;;0.40;0.40;;;;;;;;;;6260941;28;20540;-58
2023/03/27 09:31:56;;;;;;;0.30;0.30;;;;;;;;;;6236149;28;20241;-59
2023/03/27 09:34:58;;;;;;;0.10;0.10;;;;;;;;;;6246812;28;20185;-58
2023/03/27 09:38:02;;;;;;;0.30;0.30;;;;;;;;;;6229790;28;20190;-58
2023/03/27 09:41:07;;;;;;;0.30;0.30;;;;;;;;;;6251855;28;20249;-58
2023/03/27 09:44:11;;;;;;;0.20;0.20;;;;;;;;;;6246768;28;20187;-58
2023/03/27 09:47:14;;;;;;;0.20;0.10;;;;;;;;;;6274794;28;20190;-57
2023/03/27 09:50:29;;;;;;;0.20;0.10;;;;;;;;;;6239858;28;20219;-58
2023/03/27 09:53:30;;;;;;;0.13;0.13;;;;;;;;;;6250759;28;20269;-58
2023/03/27 09:56:35;;;;;;;0.30;0.20;;;;;;;;;;6253340;28;20195;-58
2023/03/27 09:59:57;;;;;;;0.50;0.30;;;;;;;;;;6244399;28;20255;-58
2023/03/27 10:03:03;;;;;;;0.60;0.33;;;;;;;;;;6244180;28;20191;-59
2023/03/27 10:06:12;;;;;;;0.90;0.70;;;;;;;;;;6246039;28;20191;-58
2023/03/27 10:09:21;;;;;;;0.30;0.30;;;;;;;;;;6241528;28;20255;-58
2023/03/27 10:12:23;;;;;;;0.63;0.10;;;;;;;;;;6226894;28;20204;-58
2023/03/27 10:15:30;;;;;;;0.40;0.40;;;;;;;;;;6261016;28;20187;-58
2023/03/27 10:18:33;;;;;;;0.20;0.20;;;;;;;;;;6243450;28;20198;-58
2023/03/27 10:21:38;;;;;;;0.20;0.20;;;;;;;;;;6243774;28;20213;-58
2023/03/27 10:24:40;;;;;;;0.20;0.20;;;;;;;;;;6244726;28;20183;-58
2023/03/27 10:27:42;;;;;;;0.10;0.10;;;;;;;;;;6256321;28;20187;-58
2023/03/27 10:30:43;;;;;;;0.13;0.10;;;;;;;;;;6221180;28;20239;-60
2023/03/27 10:33:45;;;;;;;0.10;0.10;;;;;;;;;;6244169;28;20194;-59
2023/03/27 10:36:48;;;;;;;0.43;0.20;;;;;;;;;;6221278;28;20190;-59
2023/03/27 10:39:49;;;;;;;1.23;0.23;;;;;;;;;;6259414;28;20234;-58
2023/03/27 10:42:50;;;;;;;0.47;0.30;;;;;;;;;;6261144;28;20262;-58
2023/03/27 10:45:53;;;;;;;0.20;0.20;;;;;;;;;;6230248;28;20198;-59
2023/03/27 10:48:54;;;;;;;0.10;0.10;;;;;;;;;;6242394;28;20218;-58
2023/03/27 10:51:55;;;;;;;0.10;0.10;;;;;;;;;;6244076;28;20210;-58
2023/03/27 10:54:56;;;;;;;0.50;0.20;;;;;;;;;;6243872;28;20186;-58
2023/03/27 10:57:59;;;;;;;2.43;0.60;;;;;;;;;;6244362;28;20193;-58
2023/03/27 11:01:19;;;;;;;0.10;0.10;;;;;;;;;;6244344;28;20199;-58
2023/03/27 11:04:36;;;;;;;0.20;0.10;;;;;;;;;;6244700;28;20191;-58
2023/03/27 11:07:48;;;;;;;0.10;0.10;;;;;;;;;;6272402;28;20657;-59
2023/03/27 11:10:50;;;;;;;0.10;0.10;;;;;;;;;;6247994;28;20264;-59
2023/03/27 11:13:52;;;;;;;1.53;0.50;;;;;;;;;;6229810;28;20187;-57
2023/03/27 11:16:55;;;;;;;0.20;0.20;;;;;;;;;;6228494;28;20183;-57
2023/03/27 11:20:06;;;;;;;0.20;0.20;;;;;;;;;;6240553;28;20187;-58
2023/03/27 11:23:29;;;;;;;0.20;0.20;;;;;;;;;;6241734;28;20195;-58
2023/03/27 11:26:36;;;;;;;0.97;0.20;;;;;;;;;;6242684;28;20274;-59
2023/03/27 11:29:48;;;;;;;1.17;0.10;;;;;;;;;;6242803;28;20214;-60
2023/03/27 11:33:21;;;;;;;0.10;0.10;;;;;;;;;;6250815;28;20238;-60
2023/03/27 11:36:38;;;;;;;0.27;0.27;;;;;;;;;;6236810;28;20202;-60
2023/03/27 11:39:40;;;;;;;0.30;0.30;;;;;;;;;;6250557;28;20205;-60
2023/03/27 11:42:43;;;;;;;0.20;0.20;;;;;;;;;;6244341;28;20218;-60
2023/03/27 11:45:55;;;;;;;0.20;0.20;;;;;;;;;;6236647;28;20191;-60
2023/03/27 11:49:15;;;;;;;0.40;0.40;;;;;;;;;;6264894;28;20197;-60
2023/03/27 11:52:39;;;;;;;0.10;0.10;;;;;;;;;;6256768;28;20309;-60
2023/03/27 11:55:44;;;;;;;0.30;0.10;;;;;;;;;;6227186;28;20195;-60
2023/03/27 11:58:51;;;;;;;0.20;0.20;;;;;;;;;;6245836;28;20195;-58
2023/03/27 12:01:57;;;;;;;0.87;0.20;;;;;;;;;;6249839;28;20195;-59
2023/03/27 12:05:00;;;;;;;0.20;0.20;;;;;;;;;;6255491;28;20218;-59
2023/03/27 12:08:08;;;;;;;0.20;0.20;;;;;;;;;;6269199;28;20198;-60
2023/03/27 12:11:13;;;;;;;0.10;0.10;;;;;;;;;;6249966;28;20288;-60
2023/03/27 12:14:32;;;;;;;1.17;0.10;;;;;;;;;;6271130;28;20208;-60
2023/03/27 12:17:34;;;;;;;0.20;0.20;;;;;;;;;;6243709;28;20271;-59
2023/03/27 12:20:40;;;;;;;0.17;0.17;;;;;;;;;;6240182;28;20202;-59
2023/03/27 12:23:41;;;;;;;0.27;0.10;;;;;;;;;;6244930;28;20198;-59
2023/03/27 12:26:48;;;;;;;0.97;0.20;;;;;;;;;;6244503;28;20289;-59
2023/03/27 12:29:58;;;;;;;0.40;0.10;;;;;;;;;;6239649;28;20241;-60
2023/03/27 12:33:12;;;;;;;3.10;0.20;;;;;;;;;;6266599;28;20248;-61
2023/03/27 12:36:16;;;;;;;0.10;0.10;;;;;;;;;;6247469;28;20187;-60
2023/03/27 12:39:19;;;;;;;0.20;0.20;;;;;;;;;;6246487;28;20245;-60
2023/03/27 12:42:41;;;;;;;0.10;0.10;;;;;;;;;;6245807;28;20317;-61
2023/03/27 12:46:02;;;;;;;0.10;0.10;;;;;;;;;;6254590;28;20198;-59
2023/03/27 12:49:06;;;;;;;1.50;0.27;;;;;;;;;;6248739;28;20253;-60
2023/03/27 12:52:09;;;;;;;1.20;0.20;;;;;;;;;;6237019;28;20219;-59
2023/03/27 12:55:13;;;;;;;0.10;0.10;;;;;;;;;;6264028;28;20195;-60
2023/03/27 12:58:29;;;;;;;0.30;0.27;;;;;;;;;;6244910;28;20297;-60
2023/03/27 13:01:30;;;;;;;0.10;0.10;;;;;;;;;;6236545;28;20187;-60
2023/03/27 13:04:50;;;;;;;0.10;0.10;;;;;;;;;;6235805;28;20225;-59
2023/03/27 13:08:07;;;;;;;0.97;0.50;;;;;;;;;;6244322;28;20191;-59
2023/03/27 13:11:08;;;;;;;2.53;0.30;;;;;;;;;;6247446;28;20218;-59
2023/03/27 13:14:24;;;;;;;1.20;0.20;;;;;;;;;;6248213;28;20182;-60
2023/03/27 13:17:44;;;;;;;0.60;0.20;;;;;;;;;;6248017;28;20278;-60
2023/03/27 13:21:06;;;;;;;0.40;0.30;;;;;;;;;;6246184;28;20192;-60
2023/03/27 13:24:26;;;;;;;0.13;0.13;;;;;;;;;;6272863;28;20229;-61
2023/03/27 13:27:40;;;;;;;0.10;0.10;;;;;;;;;;6231447;28;20188;-61
2023/03/27 13:30:43;;;;;;;1.50;0.20;;;;;;;;;;6242927;28;20246;-61
2023/03/27 13:33:46;;;;;;;0.10;0.10;;;;;;;;;;6246868;28;20203;-61
2023/03/27 13:36:50;;;;;;;0.10;0.10;;;5.90;88.50;;;;;;6251900;28;20183;-61
2023/03/27 13:40:10;;;;;;;0.63;0.33;;;13.50;34.20;;;;;;6248876;28;20202;-61
2023/03/27 13:43:24;;;;;;;0.37;0.30;;;13.00;34.10;;;;;;6240908;28;20282;-62
2023/03/27 13:46:28;;;;;;;0.30;0.20;;;11.90;36.60;;;;;;6235376;28;20201;-61
2023/03/27 13:49:47;;;;;;;0.57;0.37;;;11.70;38.00;;;;;;6223043;28;20209;-61
2023/03/27 13:52:48;;;;;;;0.30;0.30;;;11.90;38.90;;;;;;6225939;28;20198;-62
2023/03/27 13:56:16;;;;;;;0.20;0.20;;;12.20;37.70;;;;;;6262261;28;20191;-60
2023/03/27 13:59:26;;;;;;;0.63;0.30;;;12.30;37.70;;;;;;6240272;28;20186;-61
2023/03/27 14:03:09;;;;;;;0.30;0.30;;;12.20;35.40;;;;;;6245297;28;20187;-60
2023/03/27 14:06:49;;;;;;;0.50;0.40;;;11.50;37.20;;;;;;6172554;28;20236;-61
2023/03/27 14:10:02;;;;;;;0.20;0.20;;;11.40;36.00;;;;;;6241025;28;20223;-60
2023/03/27 14:13:20;;;;;;;0.30;0.30;;;11.20;35.40;;;;;;6238917;28;20203;-61
2023/03/27 14:16:51;;;;;;;0.73;0.33;;;11.00;34.70;;;;;;6233459;28;20191;-61
2023/03/27 14:19:55;;;;;;;0.20;0.20;;;11.00;34.90;;;;;;6243684;28;20193;-60
2023/03/27 14:23:16;;;;;;;1.67;0.33;;;11.20;34.10;;;;;;6243335;28;20221;-61
2023/03/27 14:26:23;;;;;;;0.50;0.47;;;10.90;33.70;;;;;;6233954;28;20198;-61
2023/03/27 14:29:24;;;;;;;1.03;0.60;;;10.60;33.60;;;;;;6243589;28;20187;-61
2023/03/27 14:32:25;;;;;;;0.53;0.40;;;10.10;32.80;;;;;;6226074;28;20252;-61
2023/03/27 14:35:36;;;;;;;0.67;0.60;;;10.30;34.60;;;;;;6221687;28;20286;-60
2023/03/27 14:38:37;;;;;;;1.13;0.60;;;10.60;33.80;;;;;;6237973;28;20190;-60
2023/03/27 14:41:44;;;;;;;0.53;0.53;;;;;;;;;;6227372;28;20219;-61
2023/03/27 14:44:45;;;;;;;0.73;0.73;;;;;;;;;;6258041;28;20203;-60
2023/03/27 14:47:51;;;;;;;0.60;0.60;;;;;;;;;;6228078;28;20194;-61
2023/03/27 14:50:53;;;;;;;0.73;0.60;;;;;;;;;;6239909;28;20211;-60
2023/03/27 14:53:59;;;;;;;0.57;0.50;;;;;;;;;;6241751;28;20179;-60
2023/03/27 14:57:03;;;;;;;0.67;0.60;;;;;;;;;;6242770;28;20201;-61
2023/03/27 15:00:05;;;;;;;1.03;0.93;;;;;;;;;;6240836;28;20282;-60
2023/03/27 15:03:12;;;;;;;2.57;0.60;;;;;;;;;;6228070;28;20286;-59
2023/03/27 15:06:15;;;;;;;0.77;0.70;;;;;;;;;;6247384;28;20200;-60
2023/03/27 15:09:18;;;;;;;0.40;0.40;;;;;;;;;;6242903;28;20199;-60
2023/03/27 15:12:22;;;;;;;0.57;0.57;;;;;;;;;;6245052;28;20240;-59
2023/03/27 15:15:37;;;;;;;0.70;0.50;;;;;;;;;;6242937;28;20230;-60
2023/03/27 15:18:48;;;;;;;0.80;0.60;;;;;;;;;;6243541;28;20192;-60
2023/03/27 15:21:55;;;;;;;2.07;0.70;;;;;;;;;;6238445;28;20196;-60
2023/03/27 15:25:05;;;;;;;1.23;0.77;;;10.90;32.50;;;;;;6243209;28;20216;-60
2023/03/27 15:28:12;;;;;;;0.70;0.70;;;13.30;30.50;;;;;;6242483;28;20197;-59
2023/03/27 15:31:14;;;;;;;2.23;0.60;;;13.60;30.30;;;;;;6235924;28;20235;-60
2023/03/27 15:34:45;;;;;;;0.50;0.50;;;13.80;30.60;;;;;;6235745;28;20205;-61
2023/03/27 15:37:47;;;;;;;0.57;0.33;;;13.80;31.40;;;;;;6239526;28;20199;-60
2023/03/27 15:41:10;;;;;;;0.40;0.40;;;13.50;31.60;;;;;;6251052;28;20201;-60
2023/03/27 15:44:16;;;;;;;0.50;0.50;;;13.40;31.90;;;;;;6241983;28;20196;-59
2023/03/27 15:47:25;;;;;;;0.73;0.67;;;13.10;31.20;;;;;;6236395;28;20200;-60
2023/03/27 15:50:26;;;;;;;0.70;0.70;;;;;;;;;;6242520;28;20224;-59
2023/03/27 15:53:32;;;;;;;0.70;0.67;;;;;;;;;;6229323;28;20198;-60
2023/03/27 15:56:40;;;;;;;0.60;0.60;;;;;;;;;;6244853;28;20191;-60
2023/03/27 15:59:43;;;;;;;0.60;0.60;;;;;;;;;;6230028;28;20195;-59
2023/03/27 16:02:46;;;;;;;0.70;0.70;;;;;;;;;;6243126;28;20194;-59
2023/03/27 16:05:48;;;;;;;1.80;0.70;;;;;;;;;;6242436;28;20203;-59
2023/03/27 16:08:50;;;;;;;0.73;0.60;;;;;;;;;;6245328;28;20225;-59
2023/03/27 16:11:53;;;;;;;1.37;1.00;;;;;;;;;;6230914;28;20261;-60
2023/03/27 16:14:58;;;;;;;3.60;1.23;;;;;;;;;;6246210;28;20189;-61
2023/03/27 16:18:13;;;;;;;3.27;0.90;;;;;;;;;;6246585;28;20187;-61
2023/03/27 16:21:14;;;;;;;0.70;0.70;;;;;;;;;;6248516;28;20187;-61
2023/03/27 16:24:15;;;;;;;1.00;0.80;;;;;;;;;;6245900;28;20274;-61
2023/03/27 16:27:21;;;;;;;2.83;0.87;;;;;;;;;;6241749;28;20267;-61
2023/03/27 16:30:31;;;;;;;0.97;0.77;;;10.00;37.30;;;;;;6261700;28;20270;-61
2023/03/27 16:33:31;;;;;;;2.27;1.23;;;7.80;38.70;;;;;;6250745;28;20195;-61
2023/03/27 16:36:32;;;;;;;3.03;0.97;;;7.70;38.80;;;;;;6251695;28;20205;-61
2023/03/27 16:39:34;;;;;;;1.20;0.90;;;7.50;38.90;;;;;;6264862;28;20222;-61
2023/03/27 16:42:35;;;;;;;0.80;0.80;;;7.50;39.20;;;;;;6231227;28;20198;-61
2023/03/27 16:45:36;;;;;;;1.63;0.87;;;7.50;39.30;;;;;;6233214;28;20195;-61
2023/03/27 16:48:37;;;;;;;1.20;0.97;;;7.40;39.20;;;;;;6223928;28;20208;-61
2023/03/27 16:51:37;;;;;;;0.90;0.90;;;7.40;38.80;;;;;;6226372;28;20222;-61
2023/03/27 16:54:38;;;;;;;0.80;0.70;;;7.20;39.80;;;;;;6262517;28;20244;-61
2023/03/27 16:57:45;;;;;;;0.90;0.90;;;;;;;;;;6235941;28;20205;-61
2023/03/27 17:00:46;;;;;;;1.97;1.10;;;;;;;;;;6242273;28;20192;-61
2023/03/27 17:03:47;;;;;;;1.00;0.80;;;;;;;;;;6255550;28;20202;-60
2023/03/27 17:06:49;;;;;;;1.80;1.03;;;;;;;;;;6228381;28;20289;-62
2023/03/27 17:09:50;;;;;;;0.80;0.77;;;;;;;;;;6247743;28;20190;-61
2023/03/27 17:12:53;;;;;;;0.80;0.80;;;;;;;;;;6249360;28;20198;-61
2023/03/27 17:15:54;;;;;;;0.90;0.90;;;;;;;;;;6250617;28;20191;-60
2023/03/27 17:18:56;;;;;;;2.07;1.07;;;;;;;;;;6249389;28;20205;-60
2023/03/27 17:21:57;;;;;;;0.70;0.70;;;;;;;;;;6237516;28;20344;-60
2023/03/27 17:25:01;;;;;;;1.90;1.00;;;;;;;;;;6231398;28;20244;-60
2023/03/27 17:28:02;;;;;;;1.63;0.77;;;;;;;;;;6234576;28;20225;-60
2023/03/27 17:31:03;;;;;;;0.70;0.70;;;;;;;;;;6261937;28;20326;-60
2023/03/27 17:34:06;;;;;;;5.10;1.53;;;;;;;;;;6269567;28;20624;-61
2023/03/27 17:37:07;;;;;;;0.97;0.90;;;;;;;;;;6270317;28;20248;-61
2023/03/27 17:40:09;;;;;;;5.20;1.90;;;7.20;38.80;;;;;;6259350;28;20206;-61
2023/03/27 17:43:11;;;;;;;4.13;2.60;;;6.00;46.90;;;;;;6248985;28;20281;-59
2023/03/27 17:46:13;;;;;;;1.00;1.00;;;5.80;48.40;;;;;;6226052;28;20218;-60
2023/03/27 17:49:15;;;;;;;1.13;0.80;;;5.60;48.10;;;;;;6221541;28;20236;-60
2023/03/27 17:52:16;;;;;;;1.00;0.90;;;5.50;49.70;;;;;;6266305;28;20214;-60
2023/03/27 17:55:17;;;;;;;1.40;0.90;;;5.30;50.20;;;;;;6243883;28;20190;-61
2023/03/27 17:58:20;;;;;;;2.10;0.80;;;5.30;50.70;;;;;;6237342;28;20201;-60